createdAt,value
2022-08-22T07:04:18.587Z,100163.00
2022-08-22T07:09:38.689Z,100168.02
2022-08-22T07:14:44.408Z,100168.45
2022-08-22T07:20:23.930Z,100171.33
2022-08-22T07:25:28.310Z,100173.77
2022-08-22T07:31:10.587Z,100176.77
2022-08-22T07:36:32.238Z,100176.39
2022-08-22T07:41:56.437Z,100176.36
2022-08-22T07:47:07.022Z,100178.61
2022-08-22T07:52:13.932Z,100185.33
2022-08-22T07:57:21.431Z,100188.76
2022-08-22T08:02:25.976Z,100186.48
2022-08-22T08:07:30.421Z,100185.04
2022-08-22T08:12:44.799Z,100187.88
2022-08-22T08:18:06.070Z,100188.66
2022-08-22T08:23:12.093Z,100187.25
2022-08-22T08:28:34.019Z,100184.33
2022-08-22T08:33:41.052Z,100182.14
2022-08-22T08:38:49.651Z,100180.69
2022-08-22T08:44:01.912Z,100175.83
2022-08-22T08:49:42.154Z,100180.80
2022-08-22T08:55:34.264Z,100182.23
2022-08-22T09:00:43.197Z,100179.88
2022-08-22T09:06:07.708Z,100179.77
2022-08-22T09:11:35.188Z,100173.05
2022-08-22T09:17:15.389Z,100165.20
2022-08-22T09:22:45.796Z,100161.00
2022-08-22T09:28:17.517Z,100166.26
2022-08-22T09:33:25.020Z,100167.26
2022-08-22T09:38:51.971Z,100168.55
2022-08-22T09:44:07.471Z,100172.67
2022-08-22T09:49:45.110Z,100176.45
2022-08-22T09:55:04.384Z,100181.75
2022-08-22T10:00:22.471Z,100182.09
2022-08-22T10:05:44.043Z,100183.79
2022-08-22T10:11:06.839Z,100183.55
2022-08-22T10:16:19.917Z,100179.43
2022-08-22T10:21:31.197Z,100183.98
2022-08-22T10:26:39.533Z,100186.55
2022-08-22T10:31:59.438Z,100191.48
2022-08-22T10:37:47.306Z,100189.97
2022-08-22T10:43:13.485Z,100191.20
2022-08-22T10:48:27.196Z,100191.13
2022-08-22T10:53:43.018Z,100186.98
2022-08-22T10:58:56.460Z,100182.11
2022-08-22T11:04:17.588Z,100181.83
2022-08-22T11:09:20.801Z,100184.08
2022-08-22T11:14:53.089Z,100179.53
2022-08-22T11:19:59.679Z,100178.88
2022-08-22T11:25:36.188Z,100177.36
2022-08-22T11:31:16.455Z,100175.88
2022-08-22T11:36:31.063Z,100181.09
2022-08-22T11:42:01.712Z,100183.79
2022-08-22T11:47:11.807Z,100184.27
2022-08-22T11:52:27.052Z,100189.51
2022-08-22T11:57:37.330Z,100186.54
2022-08-22T12:02:49.861Z,100184.05
2022-08-22T12:08:15.190Z,100182.96
2022-08-22T12:13:49.632Z,100183.05
2022-08-22T12:19:06.876Z,100183.21
2022-08-22T12:24:18.977Z,100185.34
2022-08-22T12:29:59.683Z,100177.52
2022-08-22T12:35:31.213Z,100182.69
2022-08-22T12:40:43.586Z,100183.19
2022-08-22T12:46:32.467Z,100179.95
2022-08-22T12:51:46.910Z,100178.82
2022-08-22T12:57:23.409Z,100179.93
2022-08-22T13:02:31.795Z,100174.51
2022-08-22T13:07:37.349Z,100172.44
2022-08-22T13:12:47.131Z,100166.95
2022-08-22T13:17:54.967Z,100166.58
2022-08-22T13:23:01.820Z,100161.67
2022-08-22T13:28:12.809Z,100169.55
2022-08-22T13:33:39.185Z,100164.98
2022-08-22T13:38:54.459Z,100159.48
2022-08-22T13:44:10.099Z,100155.66
2022-08-22T13:49:20.513Z,100158.52
2022-08-22T13:54:50.073Z,100162.00
2022-08-22T14:00:27.444Z,100169.81
2022-08-22T14:05:46.668Z,100164.67
2022-08-22T14:10:58.092Z,100152.33
2022-08-22T14:16:28.112Z,100149.17
2022-08-22T14:21:40.140Z,100144.83
2022-08-22T14:27:05.724Z,100142.45
2022-08-22T14:32:35.051Z,100141.64
2022-08-22T14:37:42.910Z,100139.02
2022-08-22T14:42:55.953Z,100137.44
2022-08-22T14:48:30.197Z,100143.16
2022-08-22T14:53:38.190Z,100144.09
2022-08-22T14:58:49.618Z,100147.49
2022-08-22T15:04:04.092Z,100151.17
2022-08-22T15:09:33.420Z,100151.98
2022-08-22T15:14:36.425Z,100149.51
2022-08-22T15:19:46.803Z,100145.34
2022-08-22T15:24:54.954Z,100143.49
2022-08-22T15:30:20.605Z,100141.48
2022-08-22T15:35:31.361Z,100141.19
2022-08-22T15:40:45.709Z,100147.91
2022-08-22T15:45:52.696Z,100149.48
2022-08-22T15:51:04.998Z,100147.25
2022-08-22T15:56:12.464Z,100149.30
2022-08-22T16:01:22.519Z,100148.71
2022-08-22T16:06:51.350Z,100140.30
2022-08-22T16:11:56.814Z,100139.41
2022-08-22T16:17:01.866Z,100132.54
2022-08-22T16:22:08.617Z,100131.49
2022-08-22T16:27:21.741Z,100128.48
2022-08-22T16:32:28.389Z,100132.70
2022-08-22T16:37:40.309Z,100140.50
2022-08-22T16:42:52.228Z,100145.91
2022-08-22T16:47:59.407Z,100155.79
2022-08-22T16:53:11.244Z,100153.23
2022-08-22T16:58:20.190Z,100157.67
2022-08-22T17:03:32.418Z,100164.23
2022-08-22T17:09:00.004Z,100165.54
2022-08-22T17:14:14.079Z,100172.75
2022-08-22T17:19:29.151Z,100175.34
2022-08-22T17:24:45.215Z,100186.63
2022-08-22T17:30:09.676Z,100179.25
2022-08-22T17:35:33.156Z,100178.91
2022-08-22T17:40:38.329Z,100190.02
2022-08-22T17:46:13.785Z,100189.04
2022-08-22T17:51:43.247Z,100188.36
2022-08-22T17:57:05.078Z,100192.07
2022-08-22T18:02:16.500Z,100192.55
2022-08-22T18:07:45.377Z,100203.23
2022-08-22T18:13:07.976Z,100210.88
2022-08-22T18:18:35.423Z,100218.81
2022-08-22T18:23:45.088Z,100225.14
2022-08-22T18:29:00.686Z,100233.17
2022-08-22T18:34:14.343Z,100236.12
2022-08-22T18:39:51.117Z,100238.24
2022-08-22T18:44:54.761Z,100236.58
2022-08-22T18:49:58.079Z,100238.04
2022-08-22T18:55:22.588Z,100235.30
2022-08-22T19:01:05.063Z,100231.95
2022-08-22T19:06:36.091Z,100234.23
2022-08-22T19:12:02.036Z,100231.19
2022-08-22T19:17:21.843Z,100229.30
2022-08-22T19:22:34.656Z,100227.89
2022-08-22T19:27:41.605Z,100225.91
2022-08-22T19:32:44.571Z,100223.77
2022-08-22T19:38:02.823Z,100226.60
2022-08-22T19:43:25.203Z,100225.41
2022-08-22T19:48:44.732Z,100222.45
2022-08-22T19:53:55.030Z,100222.10
2022-08-22T19:59:07.088Z,100235.09
2022-08-22T20:04:09.988Z,100241.02
2022-08-22T20:09:48.426Z,100245.29
2022-08-22T20:14:51.827Z,100234.92
2022-08-22T20:25:44.226Z,100234.19
2022-08-22T20:30:56.026Z,100228.88
2022-08-22T20:36:03.644Z,100229.67
2022-08-22T20:41:20.983Z,100231.67
2022-08-22T20:46:24.467Z,100231.32
2022-08-22T20:51:31.646Z,100226.38
2022-08-22T20:56:36.289Z,100225.13
2022-08-22T21:01:40.317Z,100221.64
2022-08-22T21:06:43.315Z,100217.98
2022-08-22T21:11:51.647Z,100218.20
2022-08-22T21:16:54.586Z,100211.48
2022-08-22T21:22:32.376Z,100214.21
2022-08-22T21:27:35.687Z,100213.56
2022-08-22T21:32:43.412Z,100207.13
2022-08-22T21:37:47.191Z,100205.16
2022-08-22T21:43:09.800Z,100195.31
2022-08-22T21:48:31.542Z,100188.05
2022-08-22T21:53:34.548Z,100180.08
2022-08-22T21:58:41.209Z,100176.80
2022-08-22T22:03:44.867Z,100182.06
2022-08-22T22:08:51.040Z,100179.59
2022-08-22T22:13:54.151Z,100176.29
2022-08-22T22:18:57.467Z,100176.58
2022-08-22T22:24:00.476Z,100165.70
2022-08-22T22:29:04.389Z,100162.44
2022-08-22T22:34:07.507Z,100167.59
2022-08-22T22:39:11.266Z,100168.30
2022-08-22T22:44:14.175Z,100176.45
2022-08-22T22:49:18.813Z,100169.88
2022-08-22T22:54:27.323Z,100171.55
2022-08-22T22:59:30.527Z,100165.52
2022-08-22T23:04:38.461Z,100158.05
2022-08-22T23:09:45.200Z,100157.33
2022-08-22T23:14:48.680Z,100156.15
2022-08-22T23:19:52.690Z,100156.15
2022-08-22T23:24:55.707Z,100151.02
2022-08-22T23:29:58.715Z,100139.58
2022-08-22T23:35:01.726Z,100138.55
2022-08-22T23:40:08.178Z,100142.99
2022-08-22T23:45:11.514Z,100148.71
2022-08-22T23:50:14.419Z,100151.62
2022-08-22T23:55:17.729Z,100151.00
